Time;durP1;ratioP1;P1;durP2;ratioP2;P2;SDS_P1;SDS_P2;PMS_P1;PMS_P2;Temp;Humidity;BMP_temperature;BMP_pressure;BME280_temperature;BME280_humidity;BME280_pressure;Samples;Min_cycle;Max_cycle;Signal;HPM_P1;HPM_P2
2021/03/08 00:03:17;;;;;;;40.57;15.53;;;;;;;2.48;67.39;100971.00;8535556;33;20502;-73
2021/03/08 00:08:20;;;;;;;39.67;15.23;;;;;;;2.57;66.85;100968.03;8520449;33;20762;-73
2021/03/08 00:13:22;;;;;;;37.73;16.53;;;;;;;2.54;67.10;100962.84;8522849;33;21129;-73
2021/03/08 00:18:25;;;;;;;35.10;15.53;;;;;;;2.45;66.92;100956.06;8508484;33;20427;-73
2021/03/08 00:23:28;;;;;;;37.00;16.17;;;;;;;2.26;67.55;100960.34;8538025;33;20566;-73
2021/03/08 00:28:30;;;;;;;35.50;15.77;;;;;;;2.50;66.97;100964.72;8542491;33;20423;-73
2021/03/08 00:33:33;;;;;;;41.70;17.03;;;;;;;2.42;68.09;100972.09;8542999;33;20946;-72
2021/03/08 00:38:35;;;;;;;36.87;14.60;;;;;;;2.42;68.51;100972.09;8542435;33;20144;-72
2021/03/08 00:43:37;;;;;;;45.27;16.43;;;;;;;2.25;69.18;100969.19;8517728;33;20251;-71
2021/03/08 00:48:40;;;;;;;37.90;15.77;;;;;;;2.22;69.58;100975.47;8519814;33;20179;-71
2021/03/08 00:53:43;;;;;;;38.97;16.50;;;;;;;1.92;70.11;100973.03;8581431;33;20469;-72
2021/03/08 00:58:45;;;;;;;38.50;16.60;;;;;;;2.32;70.20;100973.38;8545404;33;20427;-73
2021/03/08 01:03:48;;;;;;;40.70;16.57;;;;;;;2.43;70.55;100968.53;8518150;33;20151;-72
2021/03/08 01:08:51;;;;;;;48.63;17.37;;;;;;;2.25;71.29;100967.44;8543277;33;20430;-73
2021/03/08 01:13:54;;;;;;;37.10;17.70;;;;;;;2.22;72.73;100958.72;8542439;33;20443;-72
2021/03/08 01:18:57;;;;;;;42.23;18.07;;;;;;;2.25;73.30;100953.28;8518074;33;22100;-72
2021/03/08 01:23:59;;;;;;;43.63;18.03;;;;;;;2.17;74.72;100956.25;8541742;33;21279;-72
2021/03/08 01:29:02;;;;;;;43.07;18.23;;;;;;;2.10;75.99;100949.44;8542749;33;21292;-73
2021/03/08 01:34:05;;;;;;;34.93;15.87;;;;;;;1.98;76.89;100941.94;8540397;33;20180;-72
2021/03/08 01:39:08;;;;;;;46.17;16.43;;;;;;;1.57;77.70;100950.44;8539524;33;20475;-72
2021/03/08 01:44:10;;;;;;;51.63;18.63;;;;;;;1.77;77.86;100938.28;8537783;33;21358;-72
2021/03/08 01:49:13;;;;;;;42.53;18.57;;;;;;;1.61;78.61;100925.56;8541963;33;20412;-72
2021/03/08 01:54:15;;;;;;;45.30;19.07;;;;;;;1.72;78.69;100930.47;8543780;33;20872;-72
2021/03/08 01:59:18;;;;;;;38.33;16.00;;;;;;;1.52;78.68;100927.69;8546798;33;20249;-72
2021/03/08 02:04:21;;;;;;;48.43;18.90;;;;;;;1.41;79.93;100928.06;8521148;33;20422;-72
2021/03/08 02:09:23;;;;;;;46.47;19.63;;;;;;;1.59;79.36;100918.59;8543631;33;20469;-72
2021/03/08 02:14:43;;;;;;;48.40;18.57;;;;;;;1.58;79.17;100919.53;8540763;33;20221;-72
2021/03/08 02:20:25;;;;;;;56.23;20.97;;;;;;;1.95;78.50;100913.78;8541144;33;20410;-72
2021/03/08 02:25:49;;;;;;;45.37;17.30;;;;;;;1.65;78.96;100910.44;8540214;33;20484;-71
2021/03/08 02:30:54;;;;;;;40.60;16.23;;;;;;;1.65;79.33;100911.31;8544835;33;20243;-73
2021/03/08 02:36:03;;;;;;;43.83;18.13;;;;;;;1.65;79.59;100907.81;8522339;33;20148;-72
2021/03/08 02:41:10;;;;;;;39.97;17.93;;;;;;;1.66;79.83;100912.16;8521774;33;20562;-72
2021/03/08 02:46:20;;;;;;;46.57;17.93;;;;;;;1.61;79.29;100908.81;8553101;33;20903;-72
2021/03/08 02:51:25;;;;;;;50.23;18.47;;;;;;;1.79;79.42;100910.81;8548003;33;20159;-72
2021/03/08 02:56:33;;;;;;;44.50;18.00;;;;;;;1.67;79.06;100914.78;8545577;33;20567;-72
2021/03/08 03:01:38;;;;;;;42.87;17.90;;;;;;;1.75;78.90;100911.84;8546277;33;20484;-72
2021/03/08 03:06:44;;;;;;;47.37;18.13;;;;;;;1.90;79.18;100911.28;8562197;33;20198;-72
2021/03/08 03:11:53;;;;;;;49.40;19.43;;;;;;;2.10;79.30;100907.03;8563618;33;20178;-72
2021/03/08 03:17:01;;;;;;;45.67;18.37;;;;;;;1.98;79.86;100924.25;8534850;33;20277;-72
2021/03/08 03:22:07;;;;;;;33.40;12.77;;;;;;;2.16;79.70;100925.34;8547073;33;21448;-71
2021/03/08 03:27:09;;;;;;;20.53;9.17;;;;;;;2.14;78.69;100929.88;8553120;33;21031;-71
2021/03/08 03:32:14;;;;;;;28.07;8.60;;;;;;;2.05;79.16;100930.19;8558414;33;20348;-72
2021/03/08 03:37:22;;;;;;;17.87;5.73;;;;;;;1.94;78.80;100931.44;8554213;33;20167;-72
2021/03/08 03:42:24;;;;;;;17.17;5.63;;;;;;;1.89;78.79;100945.78;8561035;33;20420;-72
2021/03/08 03:47:28;;;;;;;20.67;5.33;;;;;;;1.82;78.55;100942.50;8561309;33;21260;-72
2021/03/08 03:52:30;;;;;;;11.03;4.80;;;;;;;1.82;78.66;100944.28;8558300;33;20438;-72
2021/03/08 03:57:38;;;;;;;19.47;5.17;;;;;;;1.86;78.69;100957.34;8563556;33;22177;-71
2021/03/08 04:02:48;;;;;;;13.33;4.43;;;;;;;1.83;78.77;100960.09;8565640;33;20135;-72
2021/03/08 04:07:52;;;;;;;14.33;4.23;;;;;;;1.88;78.68;100966.09;8566599;33;20535;-72
2021/03/08 04:13:00;;;;;;;13.60;4.03;;;;;;;1.91;79.14;100963.34;8562468;33;20187;-72
2021/03/08 04:18:06;;;;;;;11.03;4.03;;;;;;;1.93;79.16;100976.56;8562824;33;20699;-72
2021/03/08 04:23:12;;;;;;;15.60;4.53;;;;;;;1.93;79.08;100974.75;8539071;33;20196;-72
2021/03/08 04:28:17;;;;;;;13.60;3.83;;;;;;;1.91;78.60;100981.03;8569434;33;20437;-72
2021/03/08 04:33:20;;;;;;;15.50;4.07;;;;;;;1.87;78.88;100990.03;8570837;33;20419;-72
2021/03/08 04:38:23;;;;;;;18.00;4.13;;;;;;;1.81;78.38;100977.88;8566386;33;20955;-72
2021/03/08 04:43:26;;;;;;;14.10;3.73;;;;;;;1.76;78.74;100990.41;8563644;33;20271;-72
2021/03/08 04:48:30;;;;;;;9.73;3.87;;;;;;;1.80;78.87;100992.00;8564380;33;20223;-72
2021/03/08 04:53:32;;;;;;;8.97;3.80;;;;;;;1.81;78.98;100993.75;8562571;33;20967;-72
2021/03/08 04:58:35;;;;;;;13.63;4.63;;;;;;;1.81;79.06;100996.41;8562922;33;20274;-72
2021/03/08 05:03:38;;;;;;;11.43;3.73;;;;;;;1.79;78.67;101006.19;8566890;33;20643;-72
2021/03/08 05:08:43;;;;;;;19.27;3.90;;;;;;;1.76;79.00;101008.94;8568142;33;21183;-72
2021/03/08 05:13:49;;;;;;;9.10;3.63;;;;;;;1.79;78.75;101003.53;8569195;33;20481;-72
2021/03/08 05:18:52;;;;;;;15.13;3.70;;;;;;;1.78;78.55;101012.38;8566193;33;20996;-72
2021/03/08 05:23:57;;;;;;;19.53;4.60;;;;;;;1.78;78.73;101011.53;8563783;33;20410;-73
2021/03/08 05:29:00;;;;;;;12.97;4.27;;;;;;;1.78;78.74;101012.38;8567264;33;20438;-72
2021/03/08 05:34:05;;;;;;;15.73;4.17;;;;;;;1.78;78.90;101011.53;8563815;33;20533;-72
2021/03/08 05:39:10;;;;;;;14.23;4.67;;;;;;;1.80;78.94;101023.81;8567143;33;21120;-73
2021/03/08 05:44:14;;;;;;;12.00;3.97;;;;;;;1.81;79.22;101020.25;8551927;33;20621;-73
2021/03/08 05:49:36;;;;;;;13.03;5.27;;;;;;;1.75;78.62;101035.47;8556315;33;20529;-72
2021/03/08 05:55:21;;;;;;;11.33;4.90;;;;;;;1.62;77.95;101040.31;8562921;33;20154;-73
2021/03/08 06:00:39;;;;;;;13.70;4.63;;;;;;;1.78;78.29;101040.66;8561295;33;21652;-73
2021/03/08 06:06:30;;;;;;;16.60;5.37;;;;;;;1.84;78.72;101038.69;8558905;33;20198;-73
2021/03/08 06:11:33;;;;;;;13.63;5.00;;;;;;;1.86;78.87;101047.44;8547783;33;20411;-73
2021/03/08 06:16:37;;;;;;;16.30;5.30;;;;;;;1.90;78.56;101043.78;8546517;33;20152;-74
2021/03/08 06:21:40;;;;;;;14.97;4.57;;;;;;;1.98;78.84;101046.16;8546142;33;20402;-73
2021/03/08 06:26:46;;;;;;;13.23;5.33;;;;;;;1.95;78.73;101054.22;8546124;33;20138;-74
2021/03/08 06:31:51;;;;;;;12.63;5.40;;;;;;;1.90;77.69;101058.81;8546083;33;20660;-72
2021/03/08 06:36:55;;;;;;;15.87;6.00;;;;;;;1.95;78.28;101060.38;8545952;33;20335;-71
2021/03/08 06:41:59;;;;;;;18.93;7.87;;;;;;;2.11;78.62;101062.47;8561346;33;21035;-72
2021/03/08 06:47:04;;;;;;;14.67;6.73;;;;;;;2.41;78.89;101065.81;8559995;33;20420;-72
2021/03/08 06:52:10;;;;;;;15.37;6.67;;;;;;;2.82;78.12;101064.31;8560252;33;20423;-72
2021/03/08 06:57:26;;;;;;;30.87;8.33;;;;;;;3.01;77.96;101063.63;8562109;33;20422;-72
2021/03/08 07:02:38;;;;;;;32.73;10.67;;;;;;;3.18;77.64;101063.84;8565971;33;21159;-72
2021/03/08 07:07:50;;;;;;;22.47;7.57;;;;;;;3.28;76.94;101072.28;8563968;33;20441;-72
2021/03/08 07:12:53;;;;;;;20.87;7.60;;;;;;;3.51;76.60;101066.06;8561752;33;20207;-72
2021/03/08 07:17:56;;;;;;;24.73;11.00;;;;;;;3.48;75.73;101080.34;8553321;33;20227;-72
2021/03/08 07:22:59;;;;;;;8.93;5.37;;;;;;;3.47;75.34;101089.22;8541699;33;20467;-72
2021/03/08 07:28:03;;;;;;;15.30;6.57;;;;;;;3.41;74.85;101104.56;8542998;33;20940;-73
2021/03/08 07:33:07;;;;;;;20.88;6.43;;;;;;;3.31;73.99;101104.03;8538474;33;20200;-73
2021/03/08 07:38:13;;;;;;;14.38;6.50;;;;;;;3.31;73.83;101104.03;8533881;33;20839;-71
2021/03/08 07:43:22;;;;;;;14.57;6.28;;;;;;;3.36;74.55;101107.38;8513278;33;20982;-72
2021/03/08 07:48:25;;;;;;;13.20;6.35;;;;;;;3.52;74.52;101109.44;8539966;33;20183;-72
2021/03/08 07:53:31;;;;;;;13.80;6.13;;;;;;;3.91;75.17;101114.91;8537499;33;20421;-71
2021/03/08 07:58:37;;;;;;;12.63;6.35;;;;;;;4.64;72.47;101118.00;8535594;33;20422;-71
2021/03/08 08:03:39;;;;;;;12.90;6.03;;;;;;;5.28;67.85;101123.91;8533640;33;20409;-72
2021/03/08 08:08:48;;;;;;;13.50;6.28;;;;;;;5.72;68.78;101109.38;8532463;33;20453;-72
2021/03/08 08:13:57;;;;;;;13.57;6.72;;;;;;;5.71;68.20;101129.84;8537488;33;20466;-72
2021/03/08 08:19:03;;;;;;;20.85;6.82;;;;;;;5.11;69.19;101134.50;8537162;33;21554;-72
2021/03/08 08:24:11;;;;;;;17.83;7.13;;;;;;;4.63;70.89;101135.75;8539489;33;21006;-72
2021/03/08 08:29:15;;;;;;;15.10;6.65;;;;;;;4.36;71.53;101129.84;8535132;33;20541;-72
2021/03/08 08:34:33;;;;;;;17.15;7.22;;;;;;;4.02;69.16;101127.75;8531535;33;20505;-72
2021/03/08 08:39:36;;;;;;;19.60;7.45;;;;;;;3.92;71.22;101137.91;8533607;33;20191;-72
2021/03/08 08:44:40;;;;;;;30.95;11.07;;;;;;;4.18;71.26;101147.47;8535747;33;20549;-72
2021/03/08 08:49:47;;;;;;;17.65;8.50;;;;;;;4.97;70.17;101136.91;8540191;33;20335;-72
2021/03/08 08:54:53;;;;;;;15.32;5.88;;;;;;;5.12;66.34;101132.69;8539293;33;20620;-72
2021/03/08 09:00:19;;;;;;;12.90;6.25;;;;;;;5.32;67.08;101131.75;8536697;33;20191;-72
2021/03/08 09:05:40;;;;;;;15.45;5.88;;;;;;;4.96;64.21;101129.84;8529377;33;20404;-72
2021/03/08 09:10:43;;;;;;;15.60;6.22;;;;;;;5.27;65.00;101135.53;8528898;33;20324;-72
2021/03/08 09:15:45;;;;;;;13.00;5.47;;;;;;;5.24;64.31;101140.13;8528588;33;20183;-72
2021/03/08 09:20:48;;;;;;;16.35;6.28;;;;;;;5.60;65.56;101136.66;8533152;33;20418;-72
2021/03/08 09:26:00;;;;;;;12.93;5.75;;;;;;;5.72;65.79;101150.25;8529911;33;20180;-73
2021/03/08 09:31:02;;;;;;;16.55;6.30;;;;;;;6.55;63.29;101145.19;8531137;33;20418;-71
2021/03/08 09:36:07;;;;;;;12.63;5.90;;;;;;;7.99;58.98;101139.13;8527640;33;20255;-72
2021/03/08 09:41:10;;;;;;;14.40;5.85;;;;;;;7.67;58.83;101140.00;8530051;33;20500;-72
2021/03/08 09:46:15;;;;;;;11.20;5.90;;;;;;;6.95;55.45;101129.78;8530092;33;20516;-72
2021/03/08 09:51:20;;;;;;;14.35;5.95;;;;;;;7.29;59.00;101131.47;8532537;33;20671;-73
2021/03/08 09:56:27;;;;;;;11.48;5.82;;;;;;;7.32;55.78;101130.44;8534990;33;20227;-73
2021/03/08 10:01:29;;;;;;;18.38;6.28;;;;;;;7.00;53.94;101128.59;8534748;33;20421;-72
2021/03/08 10:06:51;;;;;;;16.13;5.93;;;;;;;5.68;56.13;101138.00;8581855;33;20420;-72
2021/03/08 10:12:01;;;;;;;19.73;7.45;;;;;;;7.47;55.68;101138.47;8591395;33;20419;-72
2021/03/08 10:17:05;;;;;;;12.32;5.38;;;;;;;8.69;49.66;101139.41;8533064;33;20878;-73
2021/03/08 10:22:07;;;;;;;10.27;5.75;;;;;;;8.95;48.83;101129.78;8532650;33;20149;-72
2021/03/08 10:27:13;;;;;;;12.23;6.28;;;;;;;10.15;44.25;101129.13;8529735;33;20453;-73
2021/03/08 10:32:16;;;;;;;11.55;5.03;;;;;;;10.42;43.05;101130.88;8525763;33;20399;-71
2021/03/08 10:37:20;;;;;;;17.50;6.45;;;;;;;11.25;42.46;101135.88;8548213;33;20159;-73
2021/03/08 10:42:24;;;;;;;23.92;7.55;;;;;;;11.98;40.92;101132.25;8575579;33;20167;-73
2021/03/08 10:47:26;;;;;;;13.13;6.00;;;;;;;13.20;39.33;101132.69;8586975;33;20245;-73
2021/03/08 10:52:30;;;;;;;10.48;4.80;;;;;;;11.50;35.97;101127.72;8555344;33;20767;-72
2021/03/08 10:57:50;;;;;;;13.15;4.80;;;;;;;9.00;40.56;101122.31;8536948;33;20980;-72
2021/03/08 11:02:52;;;;;;;9.98;4.25;;;;;;;8.80;42.31;101124.44;8551275;33;20445;-73
2021/03/08 11:07:54;;;;;;;8.10;4.43;;;;;;;9.81;38.66;101126.94;8550720;33;20407;-72
2021/03/08 11:13:01;;;;;;;7.40;3.97;;;;;;;9.55;39.18;101117.94;8582829;33;20613;-73
2021/03/08 11:18:03;;;;;;;8.57;4.97;;;;;;;11.47;37.45;101111.81;8593278;33;20414;-73
2021/03/08 11:23:08;;;;;;;7.47;4.07;;;;;;;10.18;39.95;101122.69;8598704;33;20430;-73
2021/03/08 11:28:13;;;;;;;7.90;3.97;;;;;;;9.80;36.94;101123.41;8602177;33;20436;-73
2021/03/08 11:33:15;;;;;;;11.20;3.70;;;;;;;8.13;39.50;101126.63;8611306;33;20422;-74
2021/03/08 11:38:25;;;;;;;8.00;3.42;;;;;;;7.58;40.85;101118.28;8620367;33;20190;-73
2021/03/08 11:43:28;;;;;;;8.20;3.72;;;;;;;7.31;40.37;101118.03;8618032;33;20982;-72
2021/03/08 11:48:30;;;;;;;9.70;3.58;;;;;;;7.45;42.44;101113.63;8619145;33;20399;-73
2021/03/08 11:53:32;;;;;;;6.40;2.72;;;;;;;7.65;42.19;101117.84;8607256;33;20700;-71
2021/03/08 11:58:37;;;;;;;6.10;3.30;;;;;;;7.83;42.73;101112.38;8562879;33;20503;-73
2021/03/08 12:03:39;;;;;;;7.28;3.65;;;;;;;7.64;41.66;101113.44;8554502;33;20234;-72
2021/03/08 12:08:42;;;;;;;8.60;5.10;;;;;;;7.49;43.24;101106.31;8527578;33;21084;-72
2021/03/08 12:13:45;;;;;;;8.40;3.92;;;;;;;7.42;41.99;101107.59;8557947;33;20137;-71
2021/03/08 12:18:48;;;;;;;8.48;3.38;;;;;;;7.35;40.89;101095.50;8540649;33;20175;-72
2021/03/08 12:23:51;;;;;;;6.78;3.10;;;;;;;7.25;41.92;101088.00;8554878;33;21082;-72
2021/03/08 12:28:54;;;;;;;6.60;3.22;;;;;;;11.49;37.23;101080.28;8550255;33;20147;-72
2021/03/08 12:33:56;;;;;;;5.65;3.50;;;;;;;13.00;32.21;101072.25;8554762;33;20198;-72
2021/03/08 12:38:59;;;;;;;7.50;3.42;;;;;;;14.13;31.97;101075.50;8564665;33;20471;-72
2021/03/08 12:44:02;;;;;;;6.28;3.05;;;;;;;16.27;28.03;101060.00;8570365;33;21097;-73
2021/03/08 12:49:04;;;;;;;7.80;3.42;;;;;;;16.03;26.36;101059.56;8569954;33;20426;-73
2021/03/08 12:54:07;;;;;;;4.63;3.15;;;;;;;14.37;27.56;101061.75;8563106;33;20433;-73
2021/03/08 12:59:10;;;;;;;5.00;3.40;;;;;;;14.87;27.07;101049.38;8563617;33;20538;-72
2021/03/08 13:04:12;;;;;;;7.63;3.28;;;;;;;15.51;26.14;101049.00;8569564;33;20464;-72
2021/03/08 13:09:14;;;;;;;6.90;2.97;;;;;;;13.87;28.30;101047.16;8575395;33;20778;-72
2021/03/08 13:14:21;;;;;;;5.32;3.20;;;;;;;13.71;28.10;101047.56;8566486;33;20156;-72
2021/03/08 13:19:23;;;;;;;4.25;3.70;;;;;;;15.36;27.22;101029.59;8568072;33;20170;-72
2021/03/08 13:24:26;;;;;;;4.18;3.10;;;;;;;15.60;25.04;101037.31;8568130;33;20692;-73
2021/03/08 13:29:29;;;;;;;5.10;2.80;;;;;;;15.31;25.32;101028.28;8513674;33;20502;-72
2021/03/08 13:34:32;;;;;;;6.68;3.30;;;;;;;16.00;25.42;101021.91;8515399;33;22459;-72
2021/03/08 13:39:34;;;;;;;6.30;3.30;;;;;;;19.08;22.47;101022.72;8516344;33;20129;-73
2021/03/08 13:44:37;;;;;;;6.55;3.47;;;;;;;18.87;22.09;101021.31;8516655;33;21451;-73
2021/03/08 13:49:40;;;;;;;5.18;3.13;;;;;;;19.57;21.58;101015.56;8514665;33;20195;-73
2021/03/08 13:54:42;;;;;;;4.38;3.25;;;;;;;19.52;21.41;101008.88;8543881;33;20562;-72
2021/03/08 13:59:45;;;;;;;5.10;3.08;;;;;;;20.15;21.16;101000.06;8576184;33;20402;-73
2021/03/08 14:04:47;;;;;;;6.15;3.60;;;;;;;17.47;23.93;101008.50;8573287;33;20490;-72
2021/03/08 14:09:49;;;;;;;6.47;3.10;;;;;;;18.21;22.29;101005.56;8517053;33;20184;-73
2021/03/08 14:14:52;;;;;;;6.65;3.10;;;;;;;17.96;22.07;101008.06;8516341;33;20176;-72
2021/03/08 14:19:55;;;;;;;5.03;3.35;;;;;;;20.27;21.01;100997.84;8516295;33;20436;-73
2021/03/08 14:24:57;;;;;;;6.50;3.03;;;;;;;21.35;20.33;100991.84;8512144;33;20633;-72
2021/03/08 14:30:00;;;;;;;5.00;2.85;;;;;;;22.18;19.74;100987.41;8512849;33;20183;-72
2021/03/08 14:35:04;;;;;;;6.93;2.90;;;;;;;19.06;20.97;100968.47;8512280;33;20688;-72
2021/03/08 14:40:08;;;;;;;5.10;1.95;;;;;;;20.49;21.51;100980.78;8511482;33;20938;-73
2021/03/08 14:45:13;;;;;;;9.10;3.70;;;;;;;19.36;20.93;100974.28;8504294;33;20511;-73
2021/03/08 14:50:16;;;;;;;4.22;2.42;;;;;;;18.20;21.87;100980.25;8506639;33;20619;-73
2021/03/08 14:55:19;;;;;;;4.30;2.97;;;;;;;17.79;21.74;100974.47;8536763;33;21089;-72
2021/03/08 15:00:23;;;;;;;4.73;3.20;;;;;;;18.24;20.99;100959.91;8561883;33;20406;-73
2021/03/08 15:05:25;;;;;;;5.60;3.50;;;;;;;17.48;22.36;100955.03;8565433;33;20322;-73
2021/03/08 15:10:27;;;;;;;7.00;3.35;;;;;;;16.83;22.84;100955.16;8570004;33;20191;-72
2021/03/08 15:15:31;;;;;;;6.65;3.25;;;;;;;16.94;22.58;100951.38;8593574;33;20446;-73
2021/03/08 15:20:33;;;;;;;4.90;3.00;;;;;;;17.15;22.80;100945.72;8561305;33;20537;-72
2021/03/08 15:25:36;;;;;;;6.22;3.28;;;;;;;17.01;22.87;100944.34;8554570;33;20711;-72
2021/03/08 15:30:39;;;;;;;7.40;3.15;;;;;;;13.94;25.96;100941.16;8550353;33;20462;-72
2021/03/08 15:35:41;;;;;;;5.25;2.90;;;;;;;12.37;27.50;100947.06;8555588;33;20411;-72
2021/03/08 15:40:43;;;;;;;5.47;3.20;;;;;;;12.30;27.41;100941.28;8556102;33;20519;-72
2021/03/08 15:45:48;;;;;;;5.88;3.22;;;;;;;12.09;27.86;100943.78;8559084;33;20279;-72
2021/03/08 15:50:50;;;;;;;7.38;3.55;;;;;;;12.34;27.94;100947.28;8536461;33;20454;-72
2021/03/08 15:55:52;;;;;;;4.50;3.08;;;;;;;12.37;28.51;100942.50;8584528;33;20528;-73
2021/03/08 16:00:55;;;;;;;6.28;3.63;;;;;;;12.07;28.47;100940.38;8621941;33;20442;-73
2021/03/08 16:05:58;;;;;;;7.82;3.30;;;;;;;11.86;29.45;100942.91;8621199;33;20308;-72
2021/03/08 16:11:00;;;;;;;5.60;3.10;;;;;;;11.73;29.19;100937.59;8625191;33;22036;-73
2021/03/08 16:16:03;;;;;;;6.78;3.75;;;;;;;11.00;29.89;100935.09;8616986;33;20406;-72
2021/03/08 16:21:06;;;;;;;5.55;3.65;;;;;;;10.52;30.01;100929.66;8596342;33;20537;-72
2021/03/08 16:26:08;;;;;;;5.55;3.85;;;;;;;9.47;31.48;100936.06;8571427;33;20155;-72
2021/03/08 16:31:11;;;;;;;8.57;3.58;;;;;;;8.96;32.83;100938.56;8552297;33;20148;-73
2021/03/08 16:36:14;;;;;;;5.40;3.22;;;;;;;8.62;33.84;100935.41;8543536;33;20455;-73
2021/03/08 16:41:16;;;;;;;7.85;2.70;;;;;;;8.24;34.47;100930.63;8543059;33;20995;-72
2021/03/08 16:46:20;;;;;;;5.05;2.90;;;;;;;7.95;34.52;100922.59;8541865;33;20501;-73
2021/03/08 16:51:23;;;;;;;6.20;3.05;;;;;;;7.26;34.86;100931.19;8541748;33;20183;-73
2021/03/08 16:56:25;;;;;;;6.90;3.75;;;;;;;6.87;35.91;100940.56;8543997;33;20421;-73
2021/03/08 17:01:28;;;;;;;7.13;3.03;;;;;;;6.63;35.83;100940.09;8557964;33;20834;-72
2021/03/08 17:06:31;;;;;;;7.22;3.22;;;;;;;6.70;36.72;100940.63;8560441;33;20159;-72
2021/03/08 17:11:35;;;;;;;7.97;3.50;;;;;;;6.71;36.64;100934.34;8556635;33;20473;-72
2021/03/08 17:16:38;;;;;;;6.90;3.30;;;;;;;6.46;36.91;100942.84;8551131;33;20442;-72
2021/03/08 17:21:40;;;;;;;7.45;3.83;;;;;;;6.24;39.78;100937.81;8556737;33;20159;-72
2021/03/08 17:26:43;;;;;;;6.07;3.20;;;;;;;5.99;38.05;100943.63;8563854;33;20450;-73
2021/03/08 17:31:46;;;;;;;5.40;3.28;;;;;;;6.05;38.56;100951.28;8567321;33;21031;-72
2021/03/08 17:36:48;;;;;;;7.60;3.90;;;;;;;6.10;39.23;100955.41;8578756;33;20243;-72
2021/03/08 17:41:51;;;;;;;10.52;4.22;;;;;;;5.99;39.13;100957.81;8560815;33;20180;-73
2021/03/08 17:46:55;;;;;;;9.00;4.45;;;;;;;5.87;38.72;100959.31;8563761;33;20447;-73
2021/03/08 17:51:57;;;;;;;10.70;4.90;;;;;;;5.90;39.08;100969.81;8586340;33;20429;-73
2021/03/08 17:56:59;;;;;;;7.10;4.38;;;;;;;5.59;41.05;100964.34;8553460;33;20255;-72
2021/03/08 18:02:22;;;;;;;11.25;5.07;;;;;;;5.27;48.86;100970.34;8550241;33;20205;-72
2021/03/08 18:07:25;;;;;;;16.75;6.38;;;;;;;4.83;52.37;100972.50;8540819;33;20943;-73
2021/03/08 18:12:28;;;;;;;8.60;5.13;;;;;;;4.77;52.87;100970.97;8544787;33;20346;-72
2021/03/08 18:17:31;;;;;;;9.82;5.50;;;;;;;4.72;53.62;100965.00;8561722;33;20455;-73
2021/03/08 18:22:34;;;;;;;9.23;5.63;;;;;;;4.85;54.17;100967.94;8551689;33;20447;-73
2021/03/08 18:27:36;;;;;;;10.20;5.40;;;;;;;4.92;54.30;100969.38;8553346;33;20437;-74
2021/03/08 18:32:40;;;;;;;9.70;5.80;;;;;;;4.83;55.05;100965.34;8555066;33;20156;-74
2021/03/08 18:37:43;;;;;;;11.00;6.25;;;;;;;4.96;55.21;100962.94;8570083;33;20539;-72
2021/03/08 18:42:47;;;;;;;14.52;6.28;;;;;;;4.96;55.50;100964.75;8572567;33;20151;-73
2021/03/08 18:47:50;;;;;;;18.75;7.45;;;;;;;4.81;56.47;100956.56;8567764;33;20889;-73
2021/03/08 18:52:54;;;;;;;15.38;6.65;;;;;;;4.61;57.73;100956.69;8553900;33;20182;-72
2021/03/08 18:57:56;;;;;;;16.00;7.00;;;;;;;4.72;57.53;100956.16;8551161;33;20921;-73
2021/03/08 19:02:59;;;;;;;16.42;7.10;;;;;;;4.64;57.84;100953.88;8538079;33;20183;-75
2021/03/08 19:08:02;;;;;;;14.35;7.43;;;;;;;4.62;57.82;100948.59;8538683;33;20430;-72
2021/03/08 19:13:04;;;;;;;11.95;6.55;;;;;;;4.59;58.39;100946.09;8539024;33;20527;-73
2021/03/08 19:18:08;;;;;;;14.55;6.95;;;;;;;4.56;58.76;100945.38;8533082;33;20179;-74
2021/03/08 19:23:10;;;;;;;16.33;7.78;;;;;;;4.60;58.47;100950.47;8532926;33;20437;-73
2021/03/08 19:28:12;;;;;;;17.17;7.10;;;;;;;4.48;59.32;100948.41;8532170;33;20424;-73
2021/03/08 19:33:15;;;;;;;18.52;8.00;;;;;;;4.49;59.54;100949.25;8555961;33;20183;-73
2021/03/08 19:38:18;;;;;;;21.35;7.97;;;;;;;4.54;59.49;100949.91;8537396;33;20475;-73
2021/03/08 19:43:20;;;;;;;17.42;7.72;;;;;;;4.44;60.05;100951.25;8530164;33;20861;-73
2021/03/08 19:48:23;;;;;;;19.67;8.57;;;;;;;4.38;60.84;100939.09;8530796;33;20198;-73
2021/03/08 19:53:26;;;;;;;20.63;9.90;;;;;;;4.42;60.52;100939.84;8517645;33;21094;-73
2021/03/08 19:58:28;;;;;;;23.02;10.20;;;;;;;4.32;61.44;100936.75;8520653;33;20171;-73
2021/03/08 20:03:33;;;;;;;25.00;10.50;;;;;;;4.35;61.31;100942.78;8512840;33;21229;-73
2021/03/08 20:08:37;;;;;;;24.75;9.93;;;;;;;4.29;61.44;100945.72;8558063;33;21942;-72
2021/03/08 20:13:46;;;;;;;29.13;12.30;;;;;;;4.23;62.56;100938.03;8531961;33;20630;-72
2021/03/08 20:18:49;;;;;;;29.08;13.02;;;;;;;4.31;62.91;100932.38;8546338;33;20392;-72
2021/03/08 20:23:52;;;;;;;36.17;13.73;;;;;;;4.31;62.76;100937.69;8569485;33;20283;-73
2021/03/08 20:28:54;;;;;;;39.30;13.95;;;;;;;4.29;62.99;100929.75;8567643;33;20443;-73
2021/03/08 20:33:57;;;;;;;32.55;14.15;;;;;;;4.30;63.21;100934.13;8546136;33;20428;-72
2021/03/08 20:38:59;;;;;;;32.08;14.40;;;;;;;4.29;63.58;100932.41;8552383;33;20127;-73
2021/03/08 20:44:01;;;;;;;37.75;14.85;;;;;;;4.13;64.07;100948.22;8589149;33;20146;-72
2021/03/08 20:49:05;;;;;;;44.53;17.75;;;;;;;4.10;64.32;100923.56;8595066;33;20490;-72
2021/03/08 20:54:08;;;;;;;34.65;16.00;;;;;;;4.14;64.50;100922.47;8575771;33;20540;-72
2021/03/08 20:59:10;;;;;;;40.95;15.57;;;;;;;4.05;64.76;100923.75;8534824;33;20219;-72
2021/03/08 21:04:13;;;;;;;40.63;15.02;;;;;;;4.09;64.81;100925.38;8516432;33;20191;-72
2021/03/08 21:09:16;;;;;;;43.58;17.23;;;;;;;4.05;64.89;100922.91;8547434;33;20431;-72
2021/03/08 21:14:18;;;;;;;45.38;17.35;;;;;;;3.91;65.95;100916.41;8545603;33;20155;-72
2021/03/08 21:19:40;;;;;;;38.63;18.35;;;;;;;3.90;66.11;100916.50;8597396;33;20462;-72
2021/03/08 21:24:42;;;;;;;40.50;16.55;;;;;;;3.94;65.91;100904.78;8591875;33;21953;-73
2021/03/08 21:30:01;;;;;;;37.80;13.05;;;;;;;3.83;66.72;100912.38;8533257;33;20889;-72
2021/03/08 21:35:06;;;;;;;46.90;17.42;;;;;;;3.74;67.26;100913.66;8534151;33;20645;-72
2021/03/08 21:40:12;;;;;;;48.00;18.58;;;;;;;3.70;67.53;100907.63;8535674;33;20349;-72
2021/03/08 21:45:16;;;;;;;41.65;17.98;;;;;;;3.63;67.86;100902.63;8536032;33;20585;-73
2021/03/08 21:50:20;;;;;;;38.80;16.42;;;;;;;3.64;67.92;100902.53;8539841;33;20431;-72
2021/03/08 21:55:22;;;;;;;38.13;15.77;;;;;;;3.65;67.55;100906.09;8542087;33;21412;-72
2021/03/08 22:00:28;;;;;;;44.78;17.15;;;;;;;3.62;67.54;100893.81;8541124;33;20540;-73
2021/03/08 22:05:31;;;;;;;43.97;17.38;;;;;;;3.55;67.71;100894.13;8541512;33;20421;-71
2021/03/08 22:10:33;;;;;;;46.00;17.85;;;;;;;3.56;67.85;100898.50;8542631;33;20987;-73
2021/03/08 22:15:36;;;;;;;41.28;16.58;;;;;;;3.57;67.61;100879.00;8540298;33;20454;-72
2021/03/08 22:20:39;;;;;;;41.92;17.33;;;;;;;3.52;67.85;100887.16;8540413;33;20410;-74
2021/03/08 22:25:41;;;;;;;44.53;18.17;;;;;;;3.47;67.59;100892.66;8538432;33;20501;-72
2021/03/08 22:30:44;;;;;;;47.15;17.35;;;;;;;3.50;67.91;100881.91;8543532;33;20192;-72
2021/03/08 22:35:47;;;;;;;44.28;18.33;;;;;;;3.55;67.40;100876.41;8548633;33;20983;-73
2021/03/08 22:40:50;;;;;;;41.42;16.67;;;;;;;3.59;67.23;100869.16;8539578;33;20220;-72
2021/03/08 22:45:52;;;;;;;41.78;17.65;;;;;;;3.56;67.41;100871.94;8540393;33;20186;-72
2021/03/08 22:50:56;;;;;;;43.63;17.02;;;;;;;3.57;66.95;100873.69;8544667;33;20611;-72
2021/03/08 22:55:58;;;;;;;41.13;17.95;;;;;;;3.69;67.11;100870.47;8535129;33;20144;-73
2021/03/08 23:01:00;;;;;;;40.17;16.83;;;;;;;3.81;66.70;100861.06;8536096;33;20642;-73
2021/03/08 23:06:04;;;;;;;40.35;16.77;;;;;;;3.77;66.56;100856.84;8538923;33;20417;-73
2021/03/08 23:11:06;;;;;;;36.53;16.98;;;;;;;3.72;66.70;100849.06;8537827;33;20874;-72
2021/03/08 23:16:09;;;;;;;34.92;17.33;;;;;;;3.77;66.41;100855.03;8536920;33;20183;-72
2021/03/08 23:21:12;;;;;;;39.15;15.90;;;;;;;3.66;66.48;100849.34;8535800;33;21912;-74
2021/03/08 23:26:14;;;;;;;42.20;17.83;;;;;;;3.51;67.12;100842.91;8535890;33;20155;-72
2021/03/08 23:31:17;;;;;;;40.25;16.50;;;;;;;3.45;67.37;100844.03;8535764;33;21057;-72
2021/03/08 23:36:20;;;;;;;41.42;15.57;;;;;;;3.30;68.14;100838.56;8536248;33;21156;-72